Time;durP1;ratioP1;P1;durP2;ratioP2;P2;SDS_P1;SDS_P2;PMS_P1;PMS_P2;Temp;Humidity;BMP_temperature;BMP_pressure;BME280_temperature;BME280_humidity;BME280_pressure;Samples;Min_cycle;Max_cycle;Signal;HPM_P1;HPM_P2
2023/09/16 00:00:06;;;;;;;1.45;1.05;;;23.80;85.30;;;;;;6239704;23;20162;-87
2023/09/16 00:02:36;;;;;;;1.45;1.20;;;23.80;85.50;;;;;;6240482;23;20159;-83
2023/09/16 00:05:06;;;;;;;1.60;0.80;;;23.70;85.70;;;;;;6240366;23;20590;-83
2023/09/16 00:07:34;;;;;;;0.90;0.70;;;23.80;85.40;;;;;;6240878;23;20167;-81
2023/09/16 00:10:03;;;;;;;0.50;0.50;;;23.80;85.40;;;;;;6241485;23;20178;-81
2023/09/16 00:12:31;;;;;;;1.15;0.77;;;23.70;85.60;;;;;;6242116;23;20197;-83
2023/09/16 00:15:01;;;;;;;1.70;1.02;;;23.80;85.50;;;;;;6239632;23;20535;-82
2023/09/16 00:17:30;;;;;;;0.50;0.50;;;23.70;85.90;;;;;;6238657;23;20652;-83
2023/09/16 00:20:00;;;;;;;0.50;0.50;;;23.70;85.60;;;;;;6239431;23;20206;-84
2023/09/16 00:22:28;;;;;;;0.38;0.38;;;23.70;85.80;;;;;;6241910;23;20270;-85
2023/09/16 00:24:57;;;;;;;1.55;0.57;;;23.70;87.10;;;;;;6240894;23;20171;-82
2023/09/16 00:27:26;;;;;;;0.93;0.88;;;23.70;86.50;;;;;;6243440;23;20173;-83
2023/09/16 00:29:54;;;;;;;0.65;0.65;;;23.60;86.40;;;;;;6213324;23;20769;-82
2023/09/16 00:32:27;;;;;;;0.70;0.70;;;23.60;86.20;;;;;;6238672;23;20181;-85
2023/09/16 00:34:56;;;;;;;0.68;0.63;;;23.60;86.10;;;;;;6238219;23;20162;-83
2023/09/16 00:37:25;;;;;;;2.10;1.08;;;23.60;86.30;;;;;;6239885;23;20195;-85
2023/09/16 00:39:53;;;;;;;1.15;1.05;;;23.60;86.00;;;;;;6239964;23;20167;-82
2023/09/16 00:42:22;;;;;;;0.95;0.63;;;23.60;85.90;;;;;;6237547;23;20620;-83
2023/09/16 00:44:50;;;;;;;2.28;0.75;;;23.60;86.00;;;;;;6239746;23;20177;-82
2023/09/16 00:47:19;;;;;;;1.13;1.02;;;23.60;86.20;;;;;;6241405;23;20229;-84
2023/09/16 00:49:49;;;;;;;0.57;0.57;;;23.60;85.80;;;;;;6239332;23;20206;-83
2023/09/16 00:52:17;;;;;;;1.50;0.70;;;23.60;86.10;;;;;;6241102;23;20176;-82
2023/09/16 00:54:50;;;;;;;0.70;0.70;;;23.60;86.20;;;;;;6240572;23;20203;-83
2023/09/16 00:57:18;;;;;;;1.42;0.35;;;23.60;86.20;;;;;;6241317;23;20178;-82
2023/09/16 00:59:47;;;;;;;0.88;0.73;;;23.60;85.90;;;;;;6240184;23;20177;-84
2023/09/16 01:02:16;;;;;;;1.08;1.02;;;23.60;85.80;;;;;;6242088;23;20167;-83
2023/09/16 01:04:45;;;;;;;14.02;0.77;;;23.60;85.80;;;;;;6239464;23;20257;-81
2023/09/16 01:07:17;;;;;;;2.38;1.33;;;23.60;85.60;;;;;;6242400;23;20170;-83
2023/09/16 01:09:46;;;;;;;0.57;0.57;;;23.60;86.00;;;;;;6240536;23;20250;-83
2023/09/16 01:12:15;;;;;;;3.42;1.15;;;23.60;85.90;;;;;;6240437;23;20166;-83
2023/09/16 01:14:43;;;;;;;0.35;0.35;;;23.60;85.90;;;;;;6239454;23;20170;-83
2023/09/16 01:17:22;;;;;;;1.85;0.60;;;23.60;86.10;;;;;;6240878;22;20208;-82
2023/09/16 01:19:57;;;;;;;0.50;0.50;;;23.50;86.20;;;;;;6241238;23;20162;-82
2023/09/16 01:22:28;;;;;;;0.73;0.73;;;23.60;85.90;;;;;;6242007;23;20151;-82
2023/09/16 01:24:57;;;;;;;0.30;0.30;;;23.50;86.10;;;;;;6239153;23;20162;-82
2023/09/16 01:27:27;;;;;;;0.47;0.47;;;23.50;86.30;;;;;;6240598;23;20647;-83
2023/09/16 01:29:55;;;;;;;1.15;1.05;;;23.50;86.30;;;;;;6238369;23;20170;-82
2023/09/16 01:32:30;;;;;;;0.40;0.40;;;23.50;86.30;;;;;;6239824;23;20230;-82
2023/09/16 01:35:02;;;;;;;0.30;0.30;;;23.40;86.70;;;;;;6240799;23;20242;-83
2023/09/16 01:37:32;;;;;;;0.60;0.55;;;23.40;86.80;;;;;;6241483;23;20155;-85
2023/09/16 01:40:01;;;;;;;0.70;0.70;;;23.30;86.50;;;;;;6237628;23;20170;-84
2023/09/16 01:42:32;;;;;;;0.68;0.60;;;23.30;86.50;;;;;;6239504;23;20683;-82
2023/09/16 01:45:02;;;;;;;0.28;0.28;;;23.30;86.30;;;;;;6240044;23;20182;-84
2023/09/16 01:47:31;;;;;;;0.60;0.50;;;23.30;86.30;;;;;;6239662;23;20684;-84
2023/09/16 01:49:59;;;;;;;0.68;0.50;;;23.30;86.30;;;;;;6239356;23;20170;-84
2023/09/16 01:52:28;;;;;;;0.65;0.65;;;23.40;86.30;;;;;;6239034;23;20179;-85
2023/09/16 01:54:56;;;;;;;0.40;0.40;;;23.40;86.30;;;;;;6240127;23;20170;-84
2023/09/16 01:57:25;;;;;;;0.47;0.47;;;23.30;86.30;;;;;;6238770;23;20508;-82
2023/09/16 01:59:55;;;;;;;0.43;0.38;;;23.30;86.10;;;;;;6239452;23;20205;-84
2023/09/16 02:02:23;;;;;;;0.70;0.65;;;23.30;86.50;;;;;;6239730;23;20163;-82
2023/09/16 02:04:52;;;;;;;1.10;0.65;;;23.30;86.40;;;;;;6240474;23;20253;-83
2023/09/16 02:07:20;;;;;;;1.08;0.68;;;23.30;86.30;;;;;;6240279;23;20241;-84
2023/09/16 02:09:49;;;;;;;0.70;0.60;;;23.30;86.50;;;;;;6238882;23;20238;-83
2023/09/16 02:12:17;;;;;;;0.60;0.60;;;23.30;86.50;;;;;;6239370;23;20624;-82
2023/09/16 02:14:49;;;;;;;0.70;0.63;;;23.20;86.40;;;;;;6239820;23;20171;-82
2023/09/16 02:17:19;;;;;;;0.30;0.30;;;23.20;86.30;;;;;;6239221;22;20272;-84
2023/09/16 02:19:48;;;;;;;0.40;0.40;;;23.30;86.20;;;;;;6240365;23;20568;-84
2023/09/16 02:22:16;;;;;;;0.52;0.50;;;23.20;86.10;;;;;;6241418;23;20162;-82
2023/09/16 02:24:44;;;;;;;0.55;0.55;;;23.20;85.90;;;;;;6239663;23;20368;-84
2023/09/16 02:27:13;;;;;;;0.30;0.30;;;23.20;86.10;;;;;;6240749;23;20166;-83
2023/09/16 02:29:41;;;;;;;1.45;0.60;;;23.30;85.90;;;;;;6239585;23;20169;-83
2023/09/16 02:32:10;;;;;;;0.20;0.20;;;23.20;86.00;;;;;;6239129;23;20162;-83
2023/09/16 02:34:40;;;;;;;0.75;0.75;;;23.20;86.00;;;;;;6239422;23;20170;-83
2023/09/16 02:37:08;;;;;;;0.30;0.30;;;23.20;86.00;;;;;;6241294;23;20193;-84
2023/09/16 02:39:40;;;;;;;0.30;0.30;;;23.20;86.10;;;;;;6239925;23;20194;-84
2023/09/16 02:42:09;;;;;;;0.60;0.32;;;23.20;85.80;;;;;;6239792;23;20217;-83
2023/09/16 02:44:37;;;;;;;0.30;0.30;;;23.20;85.70;;;;;;6241732;23;20177;-83
2023/09/16 02:47:06;;;;;;;1.10;0.70;;;23.10;86.00;;;;;;6240474;23;20269;-82
2023/09/16 02:49:34;;;;;;;0.32;0.32;;;23.10;85.70;;;;;;6242359;23;20551;-83
2023/09/16 02:52:04;;;;;;;0.60;0.60;;;23.10;85.70;;;;;;6240977;23;20216;-83
2023/09/16 02:54:33;;;;;;;0.82;0.68;;;23.10;85.60;;;;;;6241721;23;20167;-81
2023/09/16 02:57:01;;;;;;;0.50;0.45;;;23.10;85.50;;;;;;6240591;23;20253;-85
2023/09/16 02:59:30;;;;;;;0.90;0.50;;;23.10;85.50;;;;;;6241581;23;20195;-83
2023/09/16 03:01:58;;;;;;;0.88;0.88;;;23.00;85.40;;;;;;6238873;23;20283;-82
2023/09/16 03:04:27;;;;;;;0.30;0.30;;;23.10;85.30;;;;;;6238279;23;20616;-85
2023/09/16 03:06:55;;;;;;;0.30;0.30;;;23.10;85.20;;;;;;6240031;23;20173;-84
2023/09/16 03:09:25;;;;;;;0.75;0.73;;;23.10;85.10;;;;;;6242621;23;20162;-82
2023/09/16 03:11:53;;;;;;;0.57;0.57;;;23.10;85.00;;;;;;6239192;23;20175;-83
2023/09/16 03:14:22;;;;;;;0.55;0.52;;;23.10;85.10;;;;;;6239668;23;20173;-83
2023/09/16 03:16:51;;;;;;;4.95;1.17;;;23.10;85.00;;;;;;6242196;22;20205;-84
2023/09/16 03:19:19;;;;;;;0.40;0.40;;;23.00;85.00;;;;;;6244103;23;20198;-81
2023/09/16 03:21:48;;;;;;;0.50;0.50;;;23.00;84.90;;;;;;6243308;23;20166;-84
2023/09/16 03:24:16;;;;;;;0.90;0.50;;;23.10;85.00;;;;;;6240918;23;20166;-83
2023/09/16 03:26:46;;;;;;;0.40;0.40;;;23.00;85.00;;;;;;6242586;23;20170;-84
2023/09/16 03:29:17;;;;;;;1.45;0.70;;;23.00;84.90;;;;;;6244028;23;20624;-83
2023/09/16 03:31:46;;;;;;;0.57;0.57;;;23.00;84.80;;;;;;6239410;23;20189;-82
2023/09/16 03:34:14;;;;;;;0.55;0.55;;;23.10;84.70;;;;;;6239964;23;20620;-82
2023/09/16 03:36:43;;;;;;;0.20;0.20;;;23.10;84.60;;;;;;6241144;23;20536;-82
2023/09/16 03:39:11;;;;;;;0.30;0.30;;;23.10;84.60;;;;;;6238690;23;20281;-82
2023/09/16 03:41:40;;;;;;;0.40;0.38;;;23.10;84.50;;;;;;6240157;23;20170;-83
2023/09/16 03:44:10;;;;;;;0.82;0.82;;;23.10;84.50;;;;;;6241516;23;20170;-82
2023/09/16 03:46:40;;;;;;;1.02;0.98;;;23.10;84.20;;;;;;6244023;23;20170;-83
2023/09/16 03:49:09;;;;;;;0.55;0.52;;;23.10;84.20;;;;;;6241663;23;20167;-82
2023/09/16 03:51:39;;;;;;;0.77;0.60;;;23.10;84.20;;;;;;6241919;23;20171;-83
2023/09/16 03:54:07;;;;;;;1.23;0.32;;;23.10;84.30;;;;;;6239924;23;20253;-83
2023/09/16 03:56:36;;;;;;;0.95;0.88;;;23.10;84.20;;;;;;6241568;23;20173;-81
2023/09/16 03:59:04;;;;;;;0.75;0.57;;;23.10;84.10;;;;;;6240081;23;20640;-83
2023/09/16 04:01:34;;;;;;;0.82;0.65;;;23.10;84.20;;;;;;6240895;23;20186;-82
2023/09/16 04:04:03;;;;;;;0.30;0.30;;;23.10;84.10;;;;;;6240385;23;20158;-82
2023/09/16 04:06:32;;;;;;;0.32;0.32;;;23.10;84.10;;;;;;6240818;23;20715;-82
2023/09/16 04:09:01;;;;;;;0.63;0.52;;;23.10;84.20;;;;;;6239717;23;20228;-84
2023/09/16 04:11:29;;;;;;;0.30;0.30;;;23.10;84.00;;;;;;6240148;23;20189;-83
2023/09/16 04:13:58;;;;;;;0.88;0.50;;;23.10;84.00;;;;;;6241874;23;20498;-84
2023/09/16 04:16:26;;;;;;;1.35;0.70;;;23.10;84.70;;;;;;6240385;22;20198;-82
2023/09/16 04:18:58;;;;;;;0.40;0.40;;;23.10;83.80;;;;;;6240352;23;20755;-85
2023/09/16 04:21:27;;;;;;;0.95;0.57;;;23.10;83.90;;;;;;6240977;23;20254;-82
2023/09/16 04:23:55;;;;;;;1.35;0.85;;;23.00;84.10;;;;;;6238922;23;20508;-83
2023/09/16 04:26:24;;;;;;;0.93;0.90;;;23.00;83.90;;;;;;6235972;23;20209;-81
2023/09/16 04:28:52;;;;;;;0.50;0.50;;;23.00;83.80;;;;;;6238716;23;20170;-83
2023/09/16 04:31:21;;;;;;;0.30;0.30;;;23.00;84.00;;;;;;6239621;23;20181;-83
2023/09/16 04:33:49;;;;;;;1.83;0.50;;;23.00;83.90;;;;;;6241335;23;20167;-83
2023/09/16 04:36:20;;;;;;;0.30;0.30;;;23.10;83.80;;;;;;6239566;23;20181;-84
2023/09/16 04:38:49;;;;;;;0.57;0.55;;;23.10;83.80;;;;;;6240557;23;20249;-84
2023/09/16 04:41:20;;;;;;;0.63;0.55;;;23.10;83.80;;;;;;6241200;23;20198;-85
2023/09/16 04:43:49;;;;;;;1.50;0.73;;;23.10;83.60;;;;;;6241181;23;20174;-85
2023/09/16 04:46:18;;;;;;;0.40;0.40;;;23.10;83.60;;;;;;6243241;23;20181;-82
2023/09/16 04:48:47;;;;;;;0.63;0.47;;;23.10;83.60;;;;;;6242148;23;20166;-85
2023/09/16 04:51:17;;;;;;;0.47;0.47;;;23.10;83.70;;;;;;6238295;23;20174;-82
2023/09/16 04:53:49;;;;;;;0.50;0.50;;;23.10;83.60;;;;;;6241177;23;20675;-81
2023/09/16 04:56:20;;;;;;;0.30;0.30;;;23.10;83.50;;;;;;6237757;23;20161;-81
2023/09/16 04:58:49;;;;;;;2.33;0.52;;;23.10;83.60;;;;;;6242798;23;20155;-82
2023/09/16 05:01:19;;;;;;;0.40;0.40;;;23.10;83.50;;;;;;6240495;23;20229;-81
2023/09/16 05:03:47;;;;;;;0.63;0.50;;;23.10;83.30;;;;;;6242852;23;20167;-81
2023/09/16 05:06:16;;;;;;;2.17;0.65;;;23.20;83.30;;;;;;6239314;23;20170;-82
2023/09/16 05:08:46;;;;;;;0.63;0.57;;;23.20;83.40;;;;;;6212085;23;20181;-84
2023/09/16 05:11:15;;;;;;;0.30;0.30;;;23.20;83.40;;;;;;6239549;23;20192;-80
2023/09/16 05:13:45;;;;;;;1.90;0.50;;;23.20;83.50;;;;;;6214298;23;20253;-82
2023/09/16 05:16:14;;;;;;;0.38;0.38;;;23.20;83.30;;;;;;6241786;23;20682;-82
2023/09/16 05:18:43;;;;;;;0.30;0.20;;;23.20;83.30;;;;;;6240859;23;20254;-83
2023/09/16 05:21:12;;;;;;;0.47;0.47;;;23.20;83.30;;;;;;6238664;23;20194;-83
2023/09/16 05:23:40;;;;;;;0.32;0.32;;;23.20;83.30;;;;;;6241870;23;20170;-84
2023/09/16 05:26:13;;;;;;;0.75;0.57;;;23.20;83.30;;;;;;6239825;23;20216;-81
2023/09/16 05:28:41;;;;;;;0.30;0.30;;;23.30;83.30;;;;;;6242367;23;20158;-81
2023/09/16 05:31:10;;;;;;;0.65;0.65;;;23.30;83.20;;;;;;6245037;23;20252;-83
2023/09/16 05:33:40;;;;;;;0.25;0.25;;;23.40;83.30;;;;;;6216969;23;20250;-84
2023/09/16 05:36:09;;;;;;;0.30;0.30;;;23.40;83.30;;;;;;6242972;23;20177;-85
2023/09/16 05:38:37;;;;;;;0.80;0.68;;;23.40;83.00;;;;;;6217722;23;20166;-84
2023/09/16 05:41:06;;;;;;;0.47;0.47;;;23.40;83.10;;;;;;6244489;23;20194;-82
2023/09/16 05:43:36;;;;;;;0.70;0.38;;;23.40;83.30;;;;;;6244801;23;20179;-90
2023/09/16 05:46:06;;;;;;;2.47;1.10;;;23.40;83.30;;;;;;6244316;23;20174;-86
2023/09/16 05:48:35;;;;;;;1.95;1.05;;;23.40;83.30;;;;;;6245179;23;20174;-84
2023/09/16 05:51:04;;;;;;;0.38;0.38;;;23.30;83.50;;;;;;6244175;23;20170;-87
2023/09/16 05:53:33;;;;;;;0.55;0.40;;;23.30;83.60;;;;;;6242946;23;20174;-84
2023/09/16 05:56:04;;;;;;;0.75;0.75;;;23.30;83.60;;;;;;6243259;23;20174;-87
2023/09/16 05:58:36;;;;;;;1.02;0.63;;;23.40;83.80;;;;;;6245762;23;20154;-87
2023/09/16 06:01:06;;;;;;;0.40;0.40;;;23.40;84.00;;;;;;6242187;23;20555;-82
2023/09/16 06:03:34;;;;;;;0.68;0.55;;;23.40;84.10;;;;;;6240776;23;20159;-82
2023/09/16 06:06:03;;;;;;;0.63;0.63;;;23.40;84.00;;;;;;6243542;23;20492;-83
2023/09/16 06:08:33;;;;;;;0.57;0.55;;;23.40;83.80;;;;;;6240079;23;20248;-81
2023/09/16 06:11:01;;;;;;;0.38;0.38;;;23.50;83.80;;;;;;6241596;23;20170;-84
2023/09/16 06:13:29;;;;;;;1.00;0.63;;;23.50;83.70;;;;;;6241365;23;20176;-83
2023/09/16 06:15:58;;;;;;;1.45;1.35;;;23.60;83.70;;;;;;6241139;22;20198;-83
2023/09/16 06:18:28;;;;;;;1.30;0.82;;;23.60;83.70;;;;;;6238190;23;20239;-83
2023/09/16 06:20:56;;;;;;;0.70;0.60;;;23.70;83.60;;;;;;6242381;23;20194;-84
2023/09/16 06:23:25;;;;;;;0.60;0.60;;;23.70;83.60;;;;;;6243582;23;20171;-81
2023/09/16 06:25:54;;;;;;;1.92;1.27;;;23.80;83.50;;;;;;6239040;23;20173;-84
2023/09/16 06:28:23;;;;;;;9.63;1.00;;;23.80;83.40;;;;;;6242084;23;20642;-83
2023/09/16 06:30:51;;;;;;;0.93;0.55;;;23.90;83.40;;;;;;6241251;23;20190;-83
2023/09/16 06:33:20;;;;;;;1.00;0.90;;;23.90;83.20;;;;;;6240637;23;20511;-82
2023/09/16 06:35:50;;;;;;;0.63;0.63;;;23.90;83.10;;;;;;6239756;23;20166;-82
2023/09/16 06:38:19;;;;;;;2.63;0.68;;;24.00;83.00;;;;;;6241460;23;20166;-83
2023/09/16 06:40:48;;;;;;;1.60;0.82;;;24.10;83.00;;;;;;6241819;23;20186;-84
2023/09/16 06:43:16;;;;;;;0.88;0.73;;;24.10;82.70;;;;;;6242258;23;20220;-83
2023/09/16 06:45:46;;;;;;;4.32;0.95;;;24.10;82.50;;;;;;6242698;23;20631;-84
2023/09/16 06:48:14;;;;;;;0.55;0.40;;;24.10;82.40;;;;;;6241409;23;20173;-85
2023/09/16 06:50:44;;;;;;;1.15;0.65;;;24.20;82.40;;;;;;6244137;23;20711;-87
2023/09/16 06:53:14;;;;;;;1.25;0.95;;;24.20;82.50;;;;;;6246736;23;20163;-86
2023/09/16 06:55:42;;;;;;;0.73;0.63;;;24.30;82.40;;;;;;6244594;23;20185;-83
2023/09/16 06:58:10;;;;;;;1.45;0.73;;;24.30;82.20;;;;;;6243801;23;20167;-83
2023/09/16 07:00:39;;;;;;;0.60;0.60;;;24.40;82.20;;;;;;6241386;23;20190;-81
2023/09/16 07:03:08;;;;;;;1.77;1.25;;;24.40;82.00;;;;;;6243373;23;20171;-84
2023/09/16 07:05:36;;;;;;;0.98;0.80;;;24.40;81.90;;;;;;6244612;23;20166;-82
2023/09/16 07:08:05;;;;;;;2.40;0.68;;;24.50;81.90;;;;;;6245030;23;20171;-80
2023/09/16 07:10:35;;;;;;;0.52;0.52;;;24.50;82.60;;;;;;6257830;23;20170;-80
2023/09/16 07:13:04;;;;;;;1.88;1.02;;;24.60;81.70;;;;;;6261873;23;20173;-82
2023/09/16 07:15:32;;;;;;;0.57;0.50;;;24.50;81.60;;;;;;6259255;22;20173;-83
2023/09/16 07:18:00;;;;;;;3.60;1.85;;;24.60;81.50;;;;;;6262780;23;20158;-82
2023/09/16 07:20:29;;;;;;;0.40;0.40;;;24.60;81.40;;;;;;6258415;23;20170;-81
2023/09/16 07:22:57;;;;;;;3.03;1.63;;;24.60;81.20;;;;;;6247634;23;20193;-82
2023/09/16 07:25:26;;;;;;;1.95;1.15;;;24.60;81.10;;;;;;6243965;23;20647;-82
2023/09/16 07:27:56;;;;;;;0.68;0.68;;;24.60;81.10;;;;;;6243803;23;20173;-82
2023/09/16 07:30:24;;;;;;;1.20;0.77;;;24.60;81.20;;;;;;6244985;23;20202;-84
2023/09/16 07:32:53;;;;;;;1.80;1.10;;;24.70;80.90;;;;;;6242694;23;20166;-80
2023/09/16 07:35:21;;;;;;;2.70;0.68;;;24.70;81.70;;;;;;6242613;23;20209;-83
2023/09/16 07:37:50;;;;;;;1.00;0.90;;;24.80;80.90;;;;;;6242798;23;20177;-83
2023/09/16 07:40:19;;;;;;;0.80;0.80;;;24.80;80.90;;;;;;6241187;23;20190;-81
2023/09/16 07:42:48;;;;;;;1.63;1.08;;;24.90;80.90;;;;;;6243193;23;20202;-83
2023/09/16 07:45:18;;;;;;;0.65;0.65;;;25.00;80.90;;;;;;6244518;23;20170;-83
2023/09/16 07:47:47;;;;;;;2.88;0.77;;;25.00;80.80;;;;;;6242668;23;20167;-82
2023/09/16 07:50:16;;;;;;;3.42;1.50;;;25.10;80.60;;;;;;6242998;23;20174;-82
2023/09/16 07:52:44;;;;;;;1.33;0.40;;;25.10;80.20;;;;;;6242180;23;20224;-80
2023/09/16 07:55:12;;;;;;;0.52;0.52;;;25.20;80.20;;;;;;6242067;23;20173;-82
2023/09/16 07:57:41;;;;;;;1.08;0.98;;;25.20;80.10;;;;;;6242309;23;20229;-80
2023/09/16 08:00:11;;;;;;;2.47;1.40;;;25.20;80.00;;;;;;6242993;23;20228;-82
2023/09/16 08:02:40;;;;;;;3.22;0.63;;;25.30;80.00;;;;;;6244190;23;20191;-83
2023/09/16 08:05:09;;;;;;;1.55;0.65;;;25.30;79.70;;;;;;6241494;23;20200;-81
2023/09/16 08:07:38;;;;;;;1.40;1.30;;;25.40;79.70;;;;;;6242918;23;20177;-82
2023/09/16 08:10:08;;;;;;;1.48;0.95;;;25.40;79.70;;;;;;6241654;23;20177;-81
2023/09/16 08:12:36;;;;;;;3.33;1.88;;;25.40;79.50;;;;;;6241657;23;20282;-81
2023/09/16 08:15:06;;;;;;;1.98;1.05;;;25.40;79.30;;;;;;6240792;23;20624;-83
2023/09/16 08:17:37;;;;;;;0.65;0.65;;;25.40;78.90;;;;;;6243603;23;20187;-84
2023/09/16 08:20:10;;;;;;;1.98;1.42;;;25.40;78.90;;;;;;6241803;23;20166;-82
2023/09/16 08:22:38;;;;;;;1.58;1.10;;;25.40;78.80;;;;;;6240849;23;20217;-81
2023/09/16 08:25:07;;;;;;;1.00;0.77;;;25.40;78.90;;;;;;6238204;23;20730;-81
2023/09/16 08:27:36;;;;;;;0.47;0.47;;;25.40;78.60;;;;;;6238691;23;20224;-82
2023/09/16 08:30:04;;;;;;;0.57;0.47;;;25.40;78.70;;;;;;6239092;23;20166;-80
2023/09/16 08:32:35;;;;;;;0.32;0.32;;;25.40;78.70;;;;;;6241670;23;20167;-82
2023/09/16 08:35:04;;;;;;;0.55;0.55;;;25.40;78.60;;;;;;6236367;23;20167;-80
2023/09/16 08:37:34;;;;;;;3.03;0.40;;;25.40;78.70;;;;;;6240512;23;20520;-81
2023/09/16 08:40:03;;;;;;;1.52;0.95;;;25.50;78.80;;;;;;6241553;23;20267;-81
2023/09/16 08:42:36;;;;;;;0.60;0.60;;;25.50;78.70;;;;;;6242874;23;20237;-80
2023/09/16 08:45:06;;;;;;;0.55;0.52;;;25.50;78.60;;;;;;6240766;23;20163;-81
2023/09/16 08:47:40;;;;;;;1.45;0.85;;;25.50;78.60;;;;;;6242334;23;20608;-82
2023/09/16 08:50:10;;;;;;;1.35;1.25;;;25.50;78.60;;;;;;6240505;23;20162;-80
2023/09/16 08:52:47;;;;;;;1.02;0.77;;;25.50;78.40;;;;;;6240296;23;20193;-79
2023/09/16 08:55:16;;;;;;;3.70;1.80;;;25.50;78.40;;;;;;6241243;23;20162;-81
2023/09/16 08:57:48;;;;;;;0.60;0.60;;;25.50;78.30;;;;;;6238280;23;20162;-80
2023/09/16 09:00:17;;;;;;;4.15;1.17;;;25.60;79.10;;;;;;6239554;23;20234;-81
2023/09/16 09:02:47;;;;;;;0.95;0.90;;;25.60;78.30;;;;;;6239627;23;20691;-81
2023/09/16 09:05:16;;;;;;;0.68;0.68;;;25.60;78.20;;;;;;6240230;23;20559;-81
2023/09/16 09:07:47;;;;;;;0.55;0.50;;;25.60;78.00;;;;;;6240558;23;20240;-80
2023/09/16 09:10:15;;;;;;;2.05;1.00;;;25.60;78.00;;;;;;6239207;23;20170;-82
2023/09/16 09:12:44;;;;;;;3.70;1.10;;;25.60;78.20;;;;;;6241920;23;20253;-81
2023/09/16 09:15:14;;;;;;;8.15;1.27;;;25.60;78.00;;;;;;6241027;23;20170;-81
2023/09/16 09:17:45;;;;;;;1.77;1.60;;;25.60;78.00;;;;;;6241210;22;20190;-82
2023/09/16 09:20:17;;;;;;;2.28;0.82;;;25.60;77.90;;;;;;6241465;23;20154;-81
2023/09/16 09:22:49;;;;;;;1.08;0.98;;;25.60;77.90;;;;;;6238476;23;20280;-81
2023/09/16 09:25:21;;;;;;;0.57;0.57;;;25.60;77.90;;;;;;6241819;23;20155;-83
2023/09/16 09:27:51;;;;;;;2.03;0.75;;;25.70;78.00;;;;;;6239807;23;20162;-81
2023/09/16 09:30:25;;;;;;;1.45;1.00;;;25.70;78.00;;;;;;6241648;23;20232;-81
2023/09/16 09:32:55;;;;;;;1.55;1.23;;;25.70;78.10;;;;;;6241346;23;20158;-83
2023/09/16 09:35:25;;;;;;;0.68;0.63;;;25.60;77.90;;;;;;6239365;23;20208;-82
2023/09/16 09:37:55;;;;;;;1.00;1.00;;;25.70;78.10;;;;;;6241366;23;20166;-82
2023/09/16 09:40:24;;;;;;;1.08;0.82;;;25.70;78.10;;;;;;6241118;23;20150;-82
2023/09/16 09:42:55;;;;;;;1.00;0.90;;;25.70;78.10;;;;;;6239277;23;20198;-81
2023/09/16 09:45:25;;;;;;;0.70;0.70;;;25.70;78.30;;;;;;6237478;23;20209;-82
2023/09/16 09:47:54;;;;;;;1.17;0.93;;;25.70;78.10;;;;;;6240696;23;20173;-80
2023/09/16 09:50:24;;;;;;;0.68;0.57;;;25.80;78.10;;;;;;6241462;23;20170;-81
2023/09/16 09:52:55;;;;;;;0.70;0.70;;;25.90;78.20;;;;;;6241921;23;20317;-82
2023/09/16 09:55:30;;;;;;;2.50;0.70;;;25.90;78.20;;;;;;6239398;23;20720;-81
2023/09/16 09:57:59;;;;;;;1.75;0.73;;;26.00;78.30;;;;;;6238317;23;20241;-80
2023/09/16 10:00:28;;;;;;;0.90;0.77;;;26.10;78.40;;;;;;6242228;23;20186;-82
2023/09/16 10:02:59;;;;;;;1.00;0.75;;;26.10;78.30;;;;;;6238803;23;20190;-81
2023/09/16 10:05:27;;;;;;;2.30;1.50;;;26.10;78.20;;;;;;6240211;23;20151;-82
2023/09/16 10:07:58;;;;;;;1.48;1.13;;;26.20;78.00;;;;;;6240809;23;20178;-81
2023/09/16 10:10:27;;;;;;;2.05;0.90;;;26.20;77.80;;;;;;6243775;23;20161;-80
2023/09/16 10:12:56;;;;;;;0.73;0.70;;;26.20;77.60;;;;;;6237904;23;20204;-81
2023/09/16 10:15:26;;;;;;;0.52;0.52;;;26.30;77.70;;;;;;6240538;23;20171;-80
2023/09/16 10:17:56;;;;;;;2.58;1.35;;;26.30;77.50;;;;;;6238318;23;20190;-80
2023/09/16 10:20:25;;;;;;;0.98;0.85;;;26.30;77.50;;;;;;6238749;23;20616;-79
2023/09/16 10:22:54;;;;;;;0.75;0.60;;;26.30;77.50;;;;;;6237101;23;20194;-81
2023/09/16 10:25:24;;;;;;;1.95;1.23;;;26.30;77.40;;;;;;6240817;23;20171;-83
2023/09/16 10:27:58;;;;;;;1.10;0.98;;;26.30;77.40;;;;;;6237508;23;20170;-80
2023/09/16 10:30:26;;;;;;;2.70;1.55;;;26.30;77.30;;;;;;6238272;23;20155;-81
2023/09/16 10:32:56;;;;;;;1.25;0.98;;;26.30;77.20;;;;;;6238321;23;20170;-82
2023/09/16 10:35:25;;;;;;;1.15;1.05;;;26.20;77.00;;;;;;6238030;23;20272;-84
2023/09/16 10:37:54;;;;;;;1.42;1.10;;;26.30;77.20;;;;;;6238030;23;20166;-81
2023/09/16 10:40:25;;;;;;;0.55;0.55;;;26.20;77.10;;;;;;6235564;23;20245;-81
2023/09/16 10:42:54;;;;;;;0.85;0.55;;;26.30;77.20;;;;;;6237721;23;20186;-82
2023/09/16 10:45:24;;;;;;;0.70;0.70;;;26.30;77.20;;;;;;6236338;23;20185;-80
2023/09/16 10:47:54;;;;;;;0.77;0.77;;;26.30;77.30;;;;;;6240981;23;20629;-84
2023/09/16 10:50:24;;;;;;;1.17;0.55;;;26.30;77.40;;;;;;6238547;23;20159;-81
2023/09/16 10:52:55;;;;;;;0.70;0.70;;;26.30;77.20;;;;;;6238226;23;20169;-81
2023/09/16 10:55:35;;;;;;;1.90;1.70;;;26.30;77.30;;;;;;6238121;23;20178;-80
2023/09/16 10:58:07;;;;;;;1.38;0.77;;;26.30;77.40;;;;;;6237862;23;20158;-81
2023/09/16 11:00:40;;;;;;;0.57;0.57;;;26.30;77.20;;;;;;6238086;23;20162;-80
2023/09/16 11:03:14;;;;;;;1.83;1.05;;;26.40;77.30;;;;;;6239699;23;20682;-82
2023/09/16 11:05:42;;;;;;;1.75;1.15;;;26.40;77.30;;;;;;6237686;23;20158;-81
2023/09/16 11:08:11;;;;;;;0.73;0.73;;;26.40;77.30;;;;;;6239859;23;20490;-83
2023/09/16 11:10:42;;;;;;;1.45;1.35;;;26.40;77.30;;;;;;6239749;23;20189;-82
2023/09/16 11:13:11;;;;;;;1.20;0.90;;;26.50;77.40;;;;;;6240874;23;20163;-80
2023/09/16 11:15:42;;;;;;;1.95;0.70;;;26.50;77.20;;;;;;6179832;23;1394323;-83
2023/09/16 11:18:11;;;;;;;1.15;0.90;;;26.50;77.20;;;;;;6241795;23;20188;-84
2023/09/16 11:20:40;;;;;;;0.80;0.60;;;26.50;77.10;;;;;;6238347;23;20253;-83
2023/09/16 11:23:10;;;;;;;1.33;0.98;;;26.50;76.90;;;;;;6239755;23;20269;-82
2023/09/16 11:25:40;;;;;;;0.40;0.40;;;26.50;77.00;;;;;;6242082;23;20541;-83
2023/09/16 11:28:12;;;;;;;1.05;0.57;;;26.50;76.90;;;;;;6240691;23;20220;-84
2023/09/16 11:30:55;;;;;;;0.47;0.47;;;26.50;76.80;;;;;;6241041;23;20620;-82
2023/09/16 11:33:29;;;;;;;2.03;0.77;;;26.50;76.90;;;;;;6236787;23;20245;-82
2023/09/16 11:36:09;;;;;;;0.75;0.73;;;26.50;76.80;;;;;;6238859;23;20683;-82
2023/09/16 11:38:39;;;;;;;1.48;1.38;;;26.50;76.90;;;;;;6237925;23;20174;-81
2023/09/16 11:41:10;;;;;;;2.45;1.45;;;26.60;77.00;;;;;;6215032;23;20163;-80
2023/09/16 11:43:40;;;;;;;1.63;1.08;;;26.60;77.10;;;;;;6241389;23;20220;-82
2023/09/16 11:46:11;;;;;;;0.65;0.65;;;26.50;77.10;;;;;;6241809;23;20624;-81
2023/09/16 11:48:50;;;;;;;1.45;1.15;;;26.60;77.10;;;;;;6242603;23;20163;-82
2023/09/16 11:51:21;;;;;;;9.18;2.00;;;26.60;76.80;;;;;;6241858;23;20162;-83
2023/09/16 11:53:52;;;;;;;1.02;0.95;;;26.50;76.80;;;;;;6241456;23;20557;-83
2023/09/16 11:56:23;;;;;;;1.38;1.27;;;26.50;76.90;;;;;;6241187;23;20542;-83
2023/09/16 11:58:55;;;;;;;3.97;2.08;;;26.40;76.80;;;;;;6243172;23;20273;-83
2023/09/16 12:01:25;;;;;;;1.15;0.80;;;26.30;77.30;;;;;;6241455;23;20159;-83
2023/09/16 12:03:55;;;;;;;2.60;0.63;;;26.30;77.40;;;;;;6242118;23;20268;-82
2023/09/16 12:06:25;;;;;;;2.35;0.90;;;26.30;77.50;;;;;;6239305;23;20213;-82
2023/09/16 12:08:55;;;;;;;2.10;1.15;;;26.30;77.70;;;;;;6242369;23;20162;-83
2023/09/16 12:11:25;;;;;;;0.77;0.63;;;26.30;77.70;;;;;;6240758;23;20253;-83
2023/09/16 12:13:55;;;;;;;1.10;0.65;;;26.40;77.70;;;;;;6239040;23;20171;-82
2023/09/16 12:16:23;;;;;;;1.13;0.70;;;26.40;77.70;;;;;;6240009;22;20194;-84
2023/09/16 12:18:52;;;;;;;2.25;1.48;;;26.40;77.70;;;;;;6243366;23;20182;-83
2023/09/16 12:21:21;;;;;;;2.53;1.55;;;26.40;77.70;;;;;;6243735;23;20171;-84
2023/09/16 12:23:51;;;;;;;0.82;0.80;;;26.40;77.50;;;;;;6241603;23;20244;-81
2023/09/16 12:26:20;;;;;;;4.75;2.03;;;26.50;77.50;;;;;;6243934;23;20154;-85
2023/09/16 12:28:49;;;;;;;3.42;1.55;;;26.50;77.20;;;;;;6240953;23;20184;-82
2023/09/16 12:31:25;;;;;;;2.70;0.52;;;26.50;77.10;;;;;;6242527;23;20174;-90
2023/09/16 12:33:57;;;;;;;3.65;1.10;;;26.60;77.20;;;;;;6237002;23;20686;-80
2023/09/16 12:36:27;;;;;;;0.82;0.77;;;26.70;77.10;;;;;;6236929;23;20197;-82
2023/09/16 12:38:59;;;;;;;3.60;1.60;;;26.70;77.00;;;;;;6241740;23;20166;-80
2023/09/16 12:41:28;;;;;;;0.57;0.57;;;26.80;76.90;;;;;;6242960;23;20241;-82
2023/09/16 12:43:58;;;;;;;0.98;0.60;;;26.80;76.60;;;;;;6242981;23;20194;-82
2023/09/16 12:46:30;;;;;;;1.35;1.25;;;26.80;76.70;;;;;;6241287;23;20154;-82
2023/09/16 12:49:00;;;;;;;0.57;0.57;;;26.90;76.30;;;;;;6241997;23;20163;-81
2023/09/16 12:51:29;;;;;;;1.10;0.90;;;26.90;76.00;;;;;;6237725;23;20174;-81
2023/09/16 12:53:59;;;;;;;0.73;0.73;;;26.90;76.10;;;;;;6241968;23;20171;-80
2023/09/16 12:56:30;;;;;;;0.68;0.68;;;27.00;76.10;;;;;;6241454;23;20636;-81